Terminal Aerodrome Forecast
Issued by NWS

Home | Current Version | Previous Version | Text Only | Print | Product List | Glossary On
Versions: 1 2 3 4 5 6 7 8 9 10 11 12 13 14 15 16
000
FTUS44 KTSA 311700
TAFBVO
TAF
KBVO 311732Z 3118/0118 01011G22KT P6SM SKC
     FM010000 00000KT P6SM SKC
     FM011500 11005KT P6SM SCT150=

USA.gov is the U.S. government's official web portal to all federal, state and local government web resources and services.